Time;durP1;ratioP1;P1;durP2;ratioP2;P2;SDS_P1;SDS_P2;PMS_P1;PMS_P2;Temp;Humidity;BMP_temperature;BMP_pressure;BME280_temperature;BME280_humidity;BME280_pressure;Samples;Min_cycle;Max_cycle;Signal;HPM_P1;HPM_P2
2022/05/07 00:00:22;;;;;;;25.13;17.25;;;11.60;99.90;;;;;;5076095;28;20040;-47
2022/05/07 00:02:48;;;;;;;25.98;17.00;;;11.60;99.90;;;;;;5070627;28;20509;-50
2022/05/07 00:05:13;;;;;;;25.05;18.88;;;11.50;99.90;;;;;;5062967;28;20037;-50
2022/05/07 00:07:39;;;;;;;23.50;18.65;;;11.50;99.90;;;;;;5054105;28;20442;-49
2022/05/07 00:10:05;;;;;;;19.63;15.57;;;11.50;99.90;;;;;;5066696;28;20046;-47
2022/05/07 00:12:31;;;;;;;19.90;15.75;;;11.50;99.90;;;;;;5066041;28;20032;-50
2022/05/07 00:14:56;;;;;;;26.60;18.35;;;11.50;99.90;;;;;;5074173;28;20043;-50
2022/05/07 00:20:07;;;;;;;30.50;20.60;;;11.50;99.90;;;;;;5062629;28;20037;-52
2022/05/07 00:22:33;;;;;;;34.10;21.25;;;11.50;99.90;;;;;;5061187;28;20033;-50
2022/05/07 00:24:58;;;;;;;27.35;19.95;;;11.50;99.90;;;;;;5071068;28;20040;-50
2022/05/07 00:27:24;;;;;;;26.65;20.55;;;11.60;99.90;;;;;;5072053;28;20092;-51
2022/05/07 00:29:50;;;;;;;30.35;20.75;;;11.60;99.90;;;;;;5073490;28;20036;-49
2022/05/07 00:32:15;;;;;;;29.70;21.52;;;11.60;99.90;;;;;;5069869;28;20066;-50
2022/05/07 00:34:41;;;;;;;31.42;21.77;;;11.60;99.90;;;;;;5066821;28;20029;-51
2022/05/07 00:37:06;;;;;;;25.83;21.08;;;11.70;99.90;;;;;;5053639;28;20090;-50
2022/05/07 00:39:32;;;;;;;27.55;20.55;;;11.70;99.90;;;;;;5067062;28;20398;-49
2022/05/07 00:42:07;;;;;;;24.85;18.60;;;11.70;99.90;;;;;;5069818;28;20044;-48
2022/05/07 00:44:33;;;;;;;28.17;19.42;;;11.80;99.90;;;;;;5073865;28;20052;-50
2022/05/07 00:47:30;;;;;;;25.58;19.58;;;11.70;99.90;;;;;;5072359;28;20045;-48
2022/05/07 00:51:33;;;;;;;24.80;18.50;;;11.70;99.90;;;;;;5069975;28;20449;-49
2022/05/07 00:52:42;;;;;;;27.95;19.17;;;11.70;99.90;;;;;;5071635;28;20056;-48
2022/05/07 00:55:13;;;;;;;25.92;19.67;;;11.70;99.90;;;;;;5070385;28;20128;-48
2022/05/07 00:57:40;;;;;;;27.50;19.50;;;11.80;99.90;;;;;;5052033;28;20510;-50
2022/05/07 01:00:06;;;;;;;26.38;19.70;;;11.70;99.90;;;;;;5053268;28;20047;-52
2022/05/07 01:02:32;;;;;;;27.65;19.42;;;11.70;99.90;;;;;;5062095;28;20402;-49
2022/05/07 01:04:58;;;;;;;28.73;19.23;;;11.70;99.90;;;;;;5069190;28;20041;-47
2022/05/07 01:07:23;;;;;;;25.55;19.77;;;11.70;99.90;;;;;;5068584;28;20383;-48
2022/05/07 01:09:49;;;;;;;25.42;19.88;;;11.70;99.90;;;;;;5053182;28;20132;-47
2022/05/07 01:12:16;;;;;;;23.75;18.67;;;11.70;99.90;;;;;;5072592;28;20036;-46
2022/05/07 01:14:42;;;;;;;25.75;20.88;;;11.70;99.90;;;;;;5072935;28;20032;-50
2022/05/07 01:17:08;;;;;;;31.48;21.92;;;11.70;99.90;;;;;;5071765;28;20070;-50
2022/05/07 01:19:34;;;;;;;30.83;20.73;;;11.70;99.90;;;;;;5066046;28;20067;-49
2022/05/07 01:22:01;;;;;;;27.85;20.58;;;11.70;99.90;;;;;;5067636;28;20067;-47
2022/05/07 01:24:26;;;;;;;25.60;19.65;;;11.60;99.90;;;;;;5066039;28;20089;-48
2022/05/07 01:26:52;;;;;;;25.08;19.38;;;11.60;99.90;;;;;;5072922;28;20040;-49
2022/05/07 01:29:17;;;;;;;32.08;20.00;;;11.60;99.90;;;;;;5072114;28;20502;-46
2022/05/07 01:31:42;;;;;;;28.08;20.85;;;11.60;99.90;;;;;;5073013;28;20482;-46
2022/05/07 01:34:08;;;;;;;28.98;20.35;;;11.60;99.90;;;;;;5071689;28;20498;-50
2022/05/07 01:36:34;;;;;;;22.60;18.58;;;11.60;99.90;;;;;;5076457;28;20112;-49
2022/05/07 01:38:59;;;;;;;28.20;21.13;;;11.70;99.90;;;;;;5069631;28;20123;-46
2022/05/07 01:41:25;;;;;;;30.33;22.98;;;11.70;99.90;;;;;;5059632;28;20054;-46
2022/05/07 01:43:50;;;;;;;28.67;23.38;;;11.80;99.90;;;;;;5068026;28;20612;-49
2022/05/07 01:49:00;;;;;;;31.17;23.48;;;11.80;99.90;;;;;;5070707;28;20359;-47
2022/05/07 01:51:26;;;;;;;28.58;22.85;;;11.90;99.90;;;;;;5076110;28;20072;-46
2022/05/07 01:53:51;;;;;;;26.75;22.25;;;11.80;99.90;;;;;;5071721;28;20405;-47
2022/05/07 01:56:17;;;;;;;30.27;22.35;;;11.90;99.90;;;;;;5052180;28;20512;-47
2022/05/07 01:58:42;;;;;;;31.60;22.17;;;11.90;99.90;;;;;;5053476;28;20061;-50
2022/05/07 02:01:10;;;;;;;28.25;20.02;;;12.00;99.90;;;;;;5071007;28;20097;-47
2022/05/07 02:03:36;;;;;;;29.80;22.27;;;12.00;99.90;;;;;;5065753;28;20037;-47
2022/05/07 02:06:01;;;;;;;29.35;21.77;;;12.00;99.90;;;;;;5063369;28;20036;-46
2022/05/07 02:08:27;;;;;;;29.00;22.10;;;11.90;99.90;;;;;;5065003;28;20043;-48
2022/05/07 02:10:53;;;;;;;26.83;20.70;;;11.90;99.90;;;;;;5058268;28;20049;-46
2022/05/07 02:13:18;;;;;;;27.77;21.40;;;11.90;99.90;;;;;;5071874;28;20483;-47
2022/05/07 02:15:44;;;;;;;34.17;23.38;;;11.80;99.90;;;;;;5067729;28;20486;-46
2022/05/07 02:18:09;;;;;;;33.88;23.02;;;11.90;99.90;;;;;;5060798;28;20128;-48
2022/05/07 02:20:35;;;;;;;29.15;22.20;;;11.80;99.90;;;;;;5069901;28;20127;-47
2022/05/07 02:23:00;;;;;;;27.88;20.95;;;11.80;99.90;;;;;;5062248;28;20120;-46
2022/05/07 02:25:26;;;;;;;29.17;21.60;;;11.90;99.90;;;;;;5051719;28;20494;-47
2022/05/07 02:27:52;;;;;;;33.17;22.48;;;11.80;99.90;;;;;;5058852;28;20052;-50
2022/05/07 02:30:19;;;;;;;30.98;23.05;;;11.80;99.90;;;;;;5068395;28;20159;-46
2022/05/07 02:32:48;;;;;;;31.50;23.17;;;11.80;99.90;;;;;;5059894;28;20502;-46
2022/05/07 02:35:13;;;;;;;31.65;23.98;;;11.80;99.90;;;;;;5077771;28;20036;-49
2022/05/07 02:37:39;;;;;;;31.33;23.40;;;11.90;99.90;;;;;;5064556;28;20059;-46
2022/05/07 02:40:05;;;;;;;32.78;24.00;;;11.90;99.90;;;;;;5051583;28;20040;-47
2022/05/07 02:42:36;;;;;;;32.58;23.98;;;11.90;99.90;;;;;;5060103;28;20044;-47
2022/05/07 02:45:12;;;;;;;30.15;23.63;;;12.00;99.90;;;;;;5061921;28;20041;-49
2022/05/07 02:47:40;;;;;;;29.23;23.40;;;11.90;99.90;;;;;;5070428;28;20421;-49
2022/05/07 02:50:07;;;;;;;33.40;23.83;;;12.00;99.90;;;;;;5075482;28;20093;-47
2022/05/07 02:52:33;;;;;;;32.65;23.83;;;12.00;99.90;;;;;;5065677;28;20065;-49
2022/05/07 02:55:09;;;;;;;30.35;24.13;;;12.00;99.90;;;;;;5051881;28;20041;-47
2022/05/07 02:57:35;;;;;;;29.67;22.90;;;12.00;99.90;;;;;;5069237;28;20037;-47
2022/05/07 03:00:00;;;;;;;32.70;23.85;;;12.00;99.90;;;;;;5067944;28;20109;-49
2022/05/07 03:02:26;;;;;;;32.53;23.48;;;12.00;99.90;;;;;;5071275;28;20037;-48
2022/05/07 03:04:52;;;;;;;29.02;23.55;;;12.00;99.90;;;;;;5070324;28;20102;-47
2022/05/07 03:07:18;;;;;;;28.48;23.15;;;12.00;99.90;;;;;;5061410;28;20068;-47
2022/05/07 03:09:43;;;;;;;31.50;24.27;;;12.00;99.90;;;;;;5069555;28;20072;-47
2022/05/07 03:12:09;;;;;;;30.65;23.00;;;12.00;99.90;;;;;;5067084;28;20055;-47
2022/05/07 03:14:36;;;;;;;28.08;22.73;;;12.00;99.90;;;;;;5064092;28;20124;-49
2022/05/07 03:17:01;;;;;;;30.52;23.40;;;12.00;99.90;;;;;;5071089;28;20512;-47
2022/05/07 03:19:27;;;;;;;31.80;24.70;;;12.00;99.90;;;;;;5071751;28;20032;-50
2022/05/07 03:21:53;;;;;;;31.33;23.65;;;12.00;99.90;;;;;;5062237;28;20033;-49
2022/05/07 03:24:18;;;;;;;31.50;24.20;;;12.00;99.90;;;;;;5067848;28;20043;-47
2022/05/07 03:26:44;;;;;;;32.55;23.67;;;12.00;99.90;;;;;;5063437;28;20041;-47
2022/05/07 03:29:10;;;;;;;31.58;24.48;;;12.00;99.90;;;;;;5061425;28;20028;-47
2022/05/07 03:31:37;;;;;;;33.55;24.98;;;12.00;99.90;;;;;;5066200;28;20132;-47
2022/05/07 03:34:02;;;;;;;28.63;23.88;;;12.00;99.90;;;;;;5052598;28;20041;-47
2022/05/07 03:36:29;;;;;;;31.85;24.33;;;12.10;99.90;;;;;;5064311;28;20047;-47
2022/05/07 03:38:54;;;;;;;33.08;25.35;;;12.00;99.90;;;;;;5060821;28;20148;-47
2022/05/07 03:41:20;;;;;;;28.08;23.73;;;12.00;99.90;;;;;;5061670;28;20159;-46
2022/05/07 03:43:46;;;;;;;32.63;24.30;;;12.00;99.90;;;;;;5049664;28;20040;-47
2022/05/07 03:46:11;;;;;;;34.30;24.75;;;12.10;99.90;;;;;;5051091;28;20083;-47
2022/05/07 03:48:37;;;;;;;29.52;24.38;;;12.10;99.90;;;;;;5053634;28;20041;-49
2022/05/07 03:51:03;;;;;;;31.80;23.50;;;12.10;99.90;;;;;;5068480;28;20173;-47
2022/05/07 03:53:32;;;;;;;31.85;25.15;;;12.10;99.90;;;;;;5050894;28;20033;-48
2022/05/07 03:56:06;;;;;;;33.05;23.33;;;12.10;99.90;;;;;;5061568;28;20402;-47
2022/05/07 03:58:33;;;;;;;32.50;24.92;;;12.10;99.90;;;;;;5063471;28;20041;-48
2022/05/07 04:00:59;;;;;;;34.78;25.48;;;12.10;99.90;;;;;;5062294;28;20048;-47
2022/05/07 04:03:25;;;;;;;35.70;26.02;;;12.20;99.90;;;;;;5057597;28;20166;-47
2022/05/07 04:05:51;;;;;;;37.42;24.52;;;12.20;99.90;;;;;;5063224;28;20486;-47
2022/05/07 04:08:17;;;;;;;33.72;24.38;;;12.10;99.90;;;;;;5065804;28;20051;-48
2022/05/07 04:10:43;;;;;;;29.63;24.00;;;12.10;99.90;;;;;;5074360;28;20128;-47
2022/05/07 04:13:10;;;;;;;33.60;25.42;;;12.20;99.90;;;;;;5075750;28;20052;-47
2022/05/07 04:15:37;;;;;;;34.88;24.85;;;12.20;99.90;;;;;;5058519;28;20041;-48
2022/05/07 04:18:03;;;;;;;35.60;24.67;;;12.10;99.90;;;;;;5064569;28;20082;-48
2022/05/07 04:20:28;;;;;;;30.45;23.38;;;12.10;99.90;;;;;;5072094;28;20028;-47
2022/05/07 04:22:54;;;;;;;32.22;23.63;;;12.10;99.90;;;;;;5073432;28;20094;-51
2022/05/07 04:25:19;;;;;;;33.17;22.63;;;12.00;99.90;;;;;;5056228;28;21913;-48
2022/05/07 04:27:45;;;;;;;31.83;24.42;;;12.00;99.90;;;;;;5068204;28;20036;-49
2022/05/07 04:30:11;;;;;;;32.58;24.33;;;12.00;99.90;;;;;;5062992;28;20087;-50
2022/05/07 04:32:37;;;;;;;31.50;24.00;;;11.90;99.90;;;;;;5056925;28;20048;-50
2022/05/07 04:35:02;;;;;;;33.63;25.27;;;12.00;99.90;;;;;;5071118;28;20453;-51
2022/05/07 04:37:28;;;;;;;34.17;25.65;;;12.00;99.90;;;;;;5068719;28;20082;-51
2022/05/07 04:39:53;;;;;;;31.13;24.30;;;12.00;99.90;;;;;;5072884;28;20045;-51
2022/05/07 04:42:19;;;;;;;30.40;23.88;;;12.00;99.90;;;;;;5081693;28;20489;-50
2022/05/07 04:44:44;;;;;;;34.55;25.50;;;12.00;99.90;;;;;;5066198;28;20538;-48
2022/05/07 04:47:11;;;;;;;33.42;26.23;;;12.00;99.90;;;;;;5037279;28;20053;-48
2022/05/07 04:49:37;;;;;;;35.03;26.27;;;12.00;99.90;;;;;;5071928;28;20036;-48
2022/05/07 04:52:05;;;;;;;33.05;25.98;;;12.00;99.90;;;;;;5073704;28;20193;-50
2022/05/07 04:54:32;;;;;;;32.92;25.50;;;12.00;99.90;;;;;;5072625;22;20444;-51
2022/05/07 04:56:58;;;;;;;34.75;26.48;;;12.00;99.90;;;;;;5044945;28;20833;-53
2022/05/07 04:59:23;;;;;;;33.90;26.48;;;12.00;99.90;;;;;;5053491;28;20040;-52
2022/05/07 05:01:49;;;;;;;32.10;26.13;;;12.10;99.90;;;;;;5052756;28;20106;-53
2022/05/07 05:04:15;;;;;;;35.88;26.40;;;12.10;99.90;;;;;;5047717;28;20036;-52
2022/05/07 05:06:42;;;;;;;33.33;27.13;;;12.10;99.90;;;;;;5053173;28;20417;-54
2022/05/07 05:09:08;;;;;;;32.15;25.33;;;12.20;99.90;;;;;;5052456;28;20059;-53
2022/05/07 05:11:34;;;;;;;34.05;25.25;;;12.10;99.90;;;;;;5045488;28;20032;-53
2022/05/07 05:14:00;;;;;;;36.40;25.85;;;12.20;99.90;;;;;;5053340;28;20041;-52
2022/05/07 05:16:26;;;;;;;38.20;26.95;;;12.20;99.90;;;;;;5033691;28;20574;-53
2022/05/07 05:18:51;;;;;;;35.25;26.67;;;12.20;99.90;;;;;;5052172;28;20060;-53
2022/05/07 05:21:17;;;;;;;33.42;25.20;;;12.20;99.90;;;;;;5053204;28;20379;-53
2022/05/07 05:23:46;;;;;;;33.40;26.17;;;12.30;99.90;;;;;;5058664;28;20441;-53
2022/05/07 05:26:15;;;;;;;39.50;26.67;;;12.20;99.90;;;;;;5037793;28;20045;-53
2022/05/07 05:28:42;;;;;;;36.10;27.33;;;12.30;99.90;;;;;;5062184;28;20499;-53
2022/05/07 05:31:08;;;;;;;35.35;26.67;;;12.30;99.90;;;;;;5049738;28;20044;-53
2022/05/07 05:33:34;;;;;;;39.90;27.08;;;12.40;99.90;;;;;;5047077;28;20097;-54
2022/05/07 05:36:00;;;;;;;34.60;26.80;;;12.40;99.90;;;;;;5052973;28;20660;-54
2022/05/07 05:38:26;;;;;;;34.53;27.40;;;12.50;99.90;;;;;;5051159;28;20034;-54
2022/05/07 05:40:51;;;;;;;35.83;27.00;;;12.50;99.90;;;;;;5044337;28;20033;-54
2022/05/07 05:43:20;;;;;;;36.58;27.23;;;12.60;99.90;;;;;;5040740;28;20083;-54
2022/05/07 05:45:45;;;;;;;35.63;28.75;;;12.60;99.90;;;;;;5039674;28;20082;-54
2022/05/07 05:48:11;;;;;;;36.22;27.98;;;12.70;99.90;;;;;;5049579;28;20129;-54
2022/05/07 05:50:38;;;;;;;40.83;27.95;;;12.70;99.90;;;;;;5051042;28;20069;-51
2022/05/07 05:53:04;;;;;;;39.38;28.73;;;12.80;99.90;;;;;;5032566;28;20052;-54
2022/05/07 05:55:30;;;;;;;37.70;28.83;;;12.90;99.90;;;;;;5051633;28;20074;-53
2022/05/07 05:57:56;;;;;;;34.38;28.40;;;13.00;99.90;;;;;;5050571;28;20487;-51
2022/05/07 06:00:21;;;;;;;39.20;29.27;;;13.00;99.90;;;;;;5047977;28;20471;-51
2022/05/07 06:02:47;;;;;;;35.25;29.42;;;13.10;99.90;;;;;;5042999;28;20045;-53
2022/05/07 06:05:13;;;;;;;36.42;28.52;;;13.10;99.90;;;;;;5047764;28;20040;-51
2022/05/07 06:07:39;;;;;;;38.47;29.10;;;13.20;99.90;;;;;;5051280;28;20405;-54
2022/05/07 06:10:05;;;;;;;38.75;28.98;;;13.20;99.90;;;;;;5049205;28;20041;-54
2022/05/07 06:12:31;;;;;;;37.35;28.20;;;13.20;99.90;;;;;;5050346;28;20029;-54
2022/05/07 06:14:57;;;;;;;39.50;29.95;;;13.30;99.90;;;;;;5048713;28;20481;-54
2022/05/07 06:17:23;;;;;;;37.97;30.13;;;13.30;99.90;;;;;;5050438;28;20033;-54
2022/05/07 06:19:49;;;;;;;42.85;29.02;;;13.40;99.90;;;;;;5032464;28;20044;-53
2022/05/07 06:22:15;;;;;;;35.20;28.50;;;13.40;99.90;;;;;;5050633;28;20498;-53
2022/05/07 06:27:28;;;;;;;37.53;28.55;;;13.40;99.90;;;;;;5044977;28;20063;-50
2022/05/07 06:29:54;;;;;;;40.20;28.10;;;13.50;99.90;;;;;;5045668;28;20041;-51
2022/05/07 06:32:19;;;;;;;36.60;28.50;;;13.50;99.90;;;;;;5055254;28;20406;-50
2022/05/07 06:34:45;;;;;;;39.53;27.85;;;13.50;99.90;;;;;;5043876;28;20033;-51
2022/05/07 06:37:11;;;;;;;35.83;26.98;;;13.60;99.90;;;;;;5052292;28;20037;-54
2022/05/07 06:39:38;;;;;;;32.58;25.60;;;13.70;99.90;;;;;;5031615;28;20092;-53
2022/05/07 06:42:04;;;;;;;33.28;24.80;;;13.80;99.90;;;;;;5031710;28;20115;-52
2022/05/07 06:44:30;;;;;;;32.97;24.20;;;13.90;99.90;;;;;;5037247;28;20071;-52
2022/05/07 06:46:56;;;;;;;33.10;24.67;;;14.00;99.90;;;;;;5054962;28;20501;-53
2022/05/07 06:49:23;;;;;;;29.25;23.00;;;14.10;99.90;;;;;;5049374;28;20041;-50
2022/05/07 06:51:48;;;;;;;31.08;23.02;;;14.20;99.90;;;;;;5049012;28;20033;-54
2022/05/07 06:54:14;;;;;;;29.75;23.27;;;14.20;99.90;;;;;;5049535;28;20229;-52
2022/05/07 06:56:39;;;;;;;31.98;24.70;;;14.20;99.90;;;;;;5050538;28;20087;-53
2022/05/07 06:59:05;;;;;;;30.42;22.95;;;14.20;99.90;;;;;;5046168;28;20045;-51
2022/05/07 07:01:31;;;;;;;35.00;25.25;;;14.30;99.90;;;;;;5048427;28;20492;-50
2022/05/07 07:03:56;;;;;;;32.33;24.25;;;14.30;99.90;;;;;;5049465;28;20564;-50
2022/05/07 07:06:22;;;;;;;32.78;22.27;;;14.30;99.90;;;;;;5050003;28;20033;-50
2022/05/07 07:08:48;;;;;;;25.55;19.80;;;14.30;99.90;;;;;;5050334;28;20383;-50
2022/05/07 07:11:14;;;;;;;28.52;21.15;;;14.40;99.90;;;;;;5048853;28;20407;-53
2022/05/07 07:13:41;;;;;;;27.15;19.73;;;14.40;99.90;;;;;;5050030;28;20037;-52
2022/05/07 07:16:06;;;;;;;28.33;18.17;;;14.40;99.90;;;;;;5049406;28;20090;-50
2022/05/07 07:18:32;;;;;;;24.65;17.90;;;14.50;99.90;;;;;;5048869;28;20025;-51
2022/05/07 07:20:57;;;;;;;24.48;17.10;;;14.50;99.90;;;;;;5049991;28;20094;-52
2022/05/07 07:23:23;;;;;;;24.13;16.30;;;14.60;99.90;;;;;;5049698;28;20087;-52
2022/05/07 07:25:48;;;;;;;22.67;15.00;;;14.70;99.90;;;;;;5050154;28;20033;-50
2022/05/07 07:28:14;;;;;;;24.55;15.13;;;14.80;99.90;;;;;;5049897;28;20051;-54
2022/05/07 07:30:40;;;;;;;19.40;13.63;;;14.80;99.90;;;;;;5049637;28;20036;-51
2022/05/07 07:33:07;;;;;;;19.17;14.15;;;14.90;99.90;;;;;;5049637;28;20040;-53
2022/05/07 07:35:32;;;;;;;21.15;13.65;;;14.90;99.90;;;;;;5049827;28;20550;-52
2022/05/07 07:37:58;;;;;;;20.33;13.32;;;15.00;99.90;;;;;;5049304;28;20120;-52
2022/05/07 07:40:24;;;;;;;26.73;15.32;;;15.10;99.90;;;;;;5052418;28;20029;-53
2022/05/07 07:42:50;;;;;;;20.05;14.10;;;15.20;99.90;;;;;;5060539;28;20835;-50
2022/05/07 07:48:02;;;;;;;22.40;15.45;;;15.10;99.90;;;;;;5037952;28;20080;-50
2022/05/07 07:50:30;;;;;;;22.25;15.95;;;15.10;99.90;;;;;;5049175;28;20041;-52
2022/05/07 07:53:01;;;;;;;23.67;17.15;;;15.20;99.90;;;;;;5050651;28;20033;-53
2022/05/07 07:55:27;;;;;;;29.40;19.25;;;15.20;99.90;;;;;;5043042;28;20047;-51
2022/05/07 07:57:58;;;;;;;27.67;19.48;;;15.30;99.90;;;;;;5043055;28;20048;-53
2022/05/07 08:00:24;;;;;;;25.90;18.85;;;15.50;99.90;;;;;;5047753;28;20045;-52
2022/05/07 08:02:59;;;;;;;26.15;18.83;;;15.60;99.90;;;;;;5044729;28;20053;-52
2022/05/07 08:05:31;;;;;;;26.40;18.33;;;15.70;99.90;;;;;;5045495;28;20055;-53
2022/05/07 08:13:26;;;;;;;25.30;18.20;;;16.10;99.90;;;;;;5029457;28;20049;-53
2022/05/07 08:15:52;;;;;;;25.60;18.77;;;16.10;99.90;;;;;;5034537;28;20041;-53
2022/05/07 08:18:19;;;;;;;27.25;19.27;;;16.20;99.90;;;;;;5034366;28;20412;-53
2022/05/07 08:20:45;;;;;;;28.02;18.73;;;16.20;99.90;;;;;;5040428;28;20052;-52
2022/05/07 08:23:11;;;;;;;31.33;19.50;;;16.20;99.90;;;;;;5044470;28;20039;-52
2022/05/07 08:25:37;;;;;;;28.45;18.92;;;16.20;99.90;;;;;;5045075;28;20135;-53
2022/05/07 08:28:03;;;;;;;25.90;19.95;;;16.20;99.90;;;;;;5045173;28;20064;-52
2022/05/07 08:30:29;;;;;;;28.50;20.55;;;16.10;99.90;;;;;;5047867;28;20600;-52
2022/05/07 08:32:55;;;;;;;27.73;20.30;;;16.10;99.90;;;;;;5046022;28;20037;-53
2022/05/07 08:35:21;;;;;;;26.25;19.48;;;16.10;99.90;;;;;;5032874;28;20087;-51
2022/05/07 08:37:46;;;;;;;29.02;19.77;;;16.10;99.90;;;;;;5048152;28;20045;-52
2022/05/07 08:40:16;;;;;;;25.88;19.08;;;16.10;99.90;;;;;;5049561;28;20059;-51
2022/05/07 08:42:43;;;;;;;29.73;20.50;;;16.10;99.90;;;;;;5048995;28;20041;-52
2022/05/07 08:45:09;;;;;;;26.70;19.48;;;16.10;99.90;;;;;;5050434;28;20037;-51
2022/05/07 08:47:35;;;;;;;30.73;19.70;;;16.20;99.90;;;;;;5052054;28;20063;-50
2022/05/07 08:50:00;;;;;;;27.10;19.85;;;16.20;99.90;;;;;;5058723;28;20053;-53
2022/05/07 08:52:27;;;;;;;29.50;18.77;;;16.20;99.90;;;;;;5049983;28;20123;-52
2022/05/07 08:54:53;;;;;;;29.75;18.80;;;16.20;99.90;;;;;;5051101;28;20048;-50
2022/05/07 08:57:18;;;;;;;30.67;18.23;;;16.30;99.90;;;;;;5040018;28;20486;-50
2022/05/07 08:59:44;;;;;;;28.95;18.67;;;16.30;99.90;;;;;;5064715;28;20102;-50
2022/05/07 09:02:10;;;;;;;27.05;19.58;;;16.30;99.90;;;;;;5047965;28;20055;-50
2022/05/07 09:04:39;;;;;;;29.02;18.70;;;16.30;99.90;;;;;;5038024;28;20045;-51
2022/05/07 09:07:14;;;;;;;27.05;18.85;;;16.30;99.90;;;;;;5049037;28;20467;-52
2022/05/07 09:09:52;;;;;;;27.77;17.73;;;16.40;99.90;;;;;;5041361;28;20406;-50
2022/05/07 09:12:23;;;;;;;31.65;18.85;;;16.40;99.90;;;;;;5033489;28;20037;-51
2022/05/07 09:14:48;;;;;;;27.17;18.35;;;16.50;99.90;;;;;;5038062;28;20115;-50
2022/05/07 09:17:14;;;;;;;27.52;18.80;;;16.70;99.90;;;;;;5049756;28;20593;-51
2022/05/07 09:19:39;;;;;;;28.65;18.63;;;17.00;99.90;;;;;;5024748;28;20060;-51
2022/05/07 09:22:09;;;;;;;27.77;19.00;;;17.30;99.90;;;;;;5044679;28;20043;-51
2022/05/07 09:24:35;;;;;;;29.45;17.88;;;17.50;99.90;;;;;;5053414;28;20048;-50
2022/05/07 09:27:03;;;;;;;31.90;18.35;;;17.50;99.90;;;;;;5053134;28;20099;-51
2022/05/07 09:29:29;;;;;;;28.17;18.63;;;17.60;99.90;;;;;;5052982;28;20045;-51
2022/05/07 09:32:05;;;;;;;31.42;18.00;;;17.70;99.90;;;;;;5052956;28;20043;-51
2022/05/07 09:37:17;;;;;;;28.35;18.77;;;17.80;99.90;;;;;;5045748;28;20041;-51
2022/05/07 09:39:50;;;;;;;26.60;18.60;;;17.80;99.90;;;;;;5047327;28;20041;-50
2022/05/07 09:42:18;;;;;;;28.85;18.92;;;17.70;99.90;;;;;;5044672;28;20045;-51
2022/05/07 09:44:44;;;;;;;28.63;18.65;;;17.70;99.90;;;;;;5052012;28;20063;-51
2022/05/07 09:47:12;;;;;;;32.33;19.00;;;17.70;99.90;;;;;;5044145;28;20056;-51
2022/05/07 09:50:20;;;;;;;29.48;19.00;;;17.70;99.90;;;;;;5052786;28;20044;-51
2022/05/07 09:52:28;;;;;;;27.02;18.35;;;17.70;99.90;;;;;;5051959;28;20048;-51
2022/05/07 09:57:38;;;;;;;32.63;18.73;;;17.70;99.90;;;;;;5052183;28;20079;-51
2022/05/07 10:00:11;;;;;;;31.73;19.27;;;17.70;99.90;;;;;;5042138;28;20265;-50
2022/05/07 10:02:49;;;;;;;32.92;19.85;;;17.80;99.90;;;;;;5051206;28;20430;-51
2022/05/07 10:05:38;;;;;;;30.92;19.33;;;17.80;99.90;;;;;;5044171;28;20055;-51
2022/05/07 10:08:32;;;;;;;33.08;20.27;;;17.80;99.90;;;;;;5024240;28;20132;-51
2022/05/07 10:10:58;;;;;;;34.72;19.58;;;17.70;99.90;;;;;;5043173;28;20033;-51
2022/05/07 10:13:24;;;;;;;29.63;20.25;;;17.60;99.90;;;;;;5014637;28;20076;-52
2022/05/07 10:16:00;;;;;;;33.17;19.55;;;17.60;99.90;;;;;;5042645;28;20130;-51
2022/05/07 10:18:38;;;;;;;30.95;20.42;;;17.70;99.90;;;;;;5048448;28;20029;-51
2022/05/07 10:21:15;;;;;;;33.97;20.05;;;17.70;99.90;;;;;;5033894;28;20060;-51
2022/05/07 10:23:56;;;;;;;30.67;20.05;;;17.70;99.90;;;;;;5032117;28;20037;-51
2022/05/07 10:26:39;;;;;;;32.50;20.92;;;17.70;99.90;;;;;;5014650;28;20053;-51
2022/05/07 10:29:23;;;;;;;31.48;20.42;;;17.70;99.90;;;;;;5032010;28;20037;-51
2022/05/07 10:31:49;;;;;;;28.65;20.23;;;17.70;99.90;;;;;;5051961;28;20112;-52
2022/05/07 10:34:25;;;;;;;30.98;20.58;;;17.80;99.90;;;;;;5032189;28;20132;-51
2022/05/07 10:37:04;;;;;;;34.65;20.17;;;17.90;99.90;;;;;;5031821;28;20079;-51
2022/05/07 10:39:31;;;;;;;27.52;19.85;;;17.90;99.90;;;;;;5032012;28;20045;-51
2022/05/07 10:41:57;;;;;;;33.63;19.95;;;17.90;99.90;;;;;;5032025;28;20041;-51
2022/05/07 10:44:33;;;;;;;33.47;20.80;;;17.90;99.90;;;;;;5051228;28;20660;-51
2022/05/07 10:47:12;;;;;;;33.30;20.45;;;17.90;99.90;;;;;;5042488;28;20049;-52
2022/05/07 10:50:11;;;;;;;35.25;21.27;;;17.90;99.90;;;;;;5031353;28;20045;-51
2022/05/07 10:52:37;;;;;;;35.08;20.25;;;17.90;99.90;;;;;;5040033;28;20040;-51
2022/05/07 10:55:16;;;;;;;33.47;20.38;;;17.80;99.90;;;;;;5079142;22;20040;-47
2022/05/07 10:57:46;;;;;;;29.77;20.02;;;17.90;99.90;;;;;;5071197;28;20378;-47
2022/05/07 11:00:17;;;;;;;30.08;19.80;;;17.90;99.90;;;;;;5067695;28;20076;-49
2022/05/07 11:02:45;;;;;;;30.90;19.95;;;18.20;99.90;;;;;;5058615;28;20055;-47
2022/05/07 11:05:14;;;;;;;29.55;21.10;;;18.20;99.90;;;;;;5072473;28;20039;-49
2022/05/07 11:07:41;;;;;;;28.50;20.30;;;18.20;99.90;;;;;;5086547;28;20474;-48
2022/05/07 11:10:08;;;;;;;31.33;19.48;;;18.30;99.90;;;;;;5061151;28;20036;-48
2022/05/07 11:12:35;;;;;;;32.03;19.80;;;18.30;99.90;;;;;;5050895;28;20576;-47
2022/05/07 11:15:05;;;;;;;28.75;20.20;;;18.30;99.90;;;;;;5065420;28;20041;-47
2022/05/07 11:17:34;;;;;;;32.55;21.83;;;18.30;99.90;;;;;;5067532;28;20040;-47
2022/05/07 11:20:00;;;;;;;28.48;20.50;;;18.20;99.90;;;;;;5072824;28;20379;-48
2022/05/07 11:22:32;;;;;;;30.85;21.77;;;18.20;99.90;;;;;;5067159;28;20040;-48
2022/05/07 11:25:01;;;;;;;29.63;21.92;;;18.20;99.90;;;;;;5075182;28;20036;-48
2022/05/07 11:27:32;;;;;;;31.50;22.95;;;18.40;99.90;;;;;;5075208;28;20123;-47
2022/05/07 11:30:00;;;;;;;30.85;22.25;;;18.40;99.90;;;;;;5074143;28;20037;-48
2022/05/07 11:32:36;;;;;;;30.20;21.95;;;18.40;99.90;;;;;;5062014;28;20032;-48
2022/05/07 11:35:01;;;;;;;30.10;23.27;;;18.50;99.90;;;;;;5056954;28;20112;-48
2022/05/07 11:37:27;;;;;;;29.50;20.90;;;18.50;99.90;;;;;;5066080;28;20170;-47
2022/05/07 11:39:54;;;;;;;27.10;20.30;;;18.40;99.90;;;;;;5074845;28;20082;-49
2022/05/07 11:42:29;;;;;;;26.90;19.60;;;18.40;99.90;;;;;;5064564;28;20119;-48
2022/05/07 11:48:00;;;;;;;35.10;21.80;;;18.40;99.90;;;;;;5054709;28;20052;-47
2022/05/07 11:50:30;;;;;;;26.85;21.13;;;18.40;99.90;;;;;;5057540;28;20033;-47
2022/05/07 11:53:09;;;;;;;24.13;18.35;;;18.50;99.90;;;;;;5073882;28;20051;-47
2022/05/07 11:55:34;;;;;;;23.92;18.13;;;18.60;99.90;;;;;;5054768;28;20045;-47
2022/05/07 11:58:12;;;;;;;25.70;19.10;;;18.70;99.90;;;;;;5072810;28;20055;-46
2022/05/07 12:00:42;;;;;;;25.23;18.38;;;18.70;99.90;;;;;;5054763;28;20059;-48
2022/05/07 12:03:08;;;;;;;25.73;18.27;;;18.70;99.90;;;;;;5053298;28;20128;-48
2022/05/07 12:05:43;;;;;;;26.25;20.25;;;18.80;99.90;;;;;;5053226;28;20498;-48
2022/05/07 12:08:19;;;;;;;27.65;22.85;;;18.80;99.90;;;;;;5054287;28;20557;-48
2022/05/07 12:10:46;;;;;;;25.25;20.10;;;18.90;99.90;;;;;;5056802;28;20041;-47
2022/05/07 12:13:15;;;;;;;21.60;18.55;;;19.00;99.90;;;;;;5062522;28;20409;-47
2022/05/07 12:18:25;;;;;;;24.63;19.73;;;19.20;99.90;;;;;;5054529;28;20449;-48
2022/05/07 12:20:52;;;;;;;23.75;19.02;;;19.10;99.90;;;;;;5054245;28;20462;-48
2022/05/07 12:31:31;;;;;;;28.45;21.88;;;19.00;99.90;;;;;;5053896;28;20107;-48
2022/05/07 12:33:56;;;;;;;32.47;23.75;;;19.20;99.90;;;;;;5053683;28;20045;-48
2022/05/07 12:36:26;;;;;;;33.35;24.38;;;19.20;99.90;;;;;;5054105;28;20048;-50
2022/05/07 12:38:52;;;;;;;33.17;24.25;;;19.00;99.90;;;;;;5062355;28;20049;-48
2022/05/07 12:41:18;;;;;;;30.55;24.60;;;18.80;99.90;;;;;;5069399;28;20133;-48
2022/05/07 12:43:43;;;;;;;32.25;25.10;;;18.80;99.90;;;;;;5060907;28;20048;-48
2022/05/07 12:46:09;;;;;;;31.17;23.85;;;18.80;99.90;;;;;;5073862;28;20063;-47
2022/05/07 12:48:35;;;;;;;32.75;22.70;;;18.80;99.90;;;;;;5073365;28;20040;-47
2022/05/07 12:51:01;;;;;;;34.38;24.13;;;18.80;99.90;;;;;;5073505;28;20544;-50
2022/05/07 12:53:27;;;;;;;31.90;24.98;;;18.80;99.90;;;;;;5073687;28;20036;-52
2022/05/07 12:55:52;;;;;;;35.58;24.02;;;18.80;99.90;;;;;;5072054;28;20044;-51
2022/05/07 12:58:18;;;;;;;35.80;24.48;;;18.80;99.90;;;;;;5072358;28;20036;-50
2022/05/07 13:00:43;;;;;;;33.25;23.83;;;18.90;99.90;;;;;;5072353;28;20493;-50
2022/05/07 13:03:09;;;;;;;32.83;23.08;;;18.90;99.90;;;;;;5062724;28;20090;-49
2022/05/07 13:05:37;;;;;;;28.70;20.65;;;19.00;99.90;;;;;;5053473;28;20123;-50